Latest Weather Observations for Canterbury

IDN60801

Issued at 2:23 am EDT Friday 29 January 2021 (issued every 10 minutes, with the page automatically refreshed every 10 minutes)

About weather observations | Map of weather stations | Latest weather observations for NSW | Other Formats
Station Details ID: 066194 Name: CANTERBURY RACECOURSE AWS Lat: -33.91 Lon: 151.11 Height: 3.0 m
Data from the previous 72 hours. | See also: Recent months at Canterbury
Date/Time
EDT
Temp
°C
App
Temp
°C
Dew
Point
°C
Rel
Hum
%
Delta-T
°C
Wind Press
QNH
hPa
Press
MSL
hPa
Rain since
9am
mm
Dir  Spd
km/h
Gust
km/h
Spd
kts
Gust
kts
29/02:00am 20.0 19.7 16.4 80 2.2 ENE 13 20 7 11 - - 3.4
29/01:30am 20.0 19.9 17.0 83 1.8 ENE 13 20 7 11 - - 3.4
29/01:00am 19.9 21.1 17.3 85 1.6 ESE 7 13 4 7 - - 3.4
29/12:30am 20.1 21.4 17.5 85 1.6 SE 7 9 4 5 - - 3.4
29/12:00am 19.8 20.7 17.6 87 1.3 SE 9 13 5 7 - - 3.4
 
Date/Time
EDT
Temp
°C
App
Temp
°C
Dew
Point
°C
Rel
Hum
%
Delta-T
°C
Wind Press
QNH
hPa
Press
MSL
hPa
Rain since
9am
mm
Dir  Spd
km/h
Gust
km/h
Spd
kts
Gust
kts
28/11:30pm 19.7 21.4 18.0 90 1.0 SE 6 9 3 5 - - 3.4
28/11:00pm 19.4 20.5 18.1 92 0.8 SE 9 17 5 9 - - 3.4
28/10:30pm 19.2 18.8 18.0 93 0.7 SE 17 24 9 13 - - 3.4
28/10:07pm 19.1 18.6 18.6 97 0.3 SE 19 28 10 15 - - 3.4
28/10:00pm 19.0 18.9 18.8 99 0.1 SE 17 24 9 13 - - 3.4
28/09:30pm 18.7 18.1 18.4 98 0.2 SE 19 30 10 16 - - 2.6
28/09:00pm 18.6 18.9 17.9 96 0.4 SSE 13 19 7 10 - - 1.6
28/08:44pm 18.5 17.9 17.5 94 0.6 SE 17 26 9 14 - - 1.2
28/08:42pm 18.5 17.9 17.5 94 0.6 SE 17 28 9 15 - - 1.2
28/08:30pm 18.7 18.2 17.7 94 0.6 SE 17 28 9 15 - - 1.2
28/08:00pm 19.0 17.8 17.0 88 1.2 ESE 19 26 10 14 - - 0.8
28/07:55pm 19.4 18.1 16.8 85 1.6 ESE 19 28 10 15 - - 0.6
28/07:30pm 19.7 18.8 16.9 84 1.7 SE 17 26 9 14 - - 0.6
28/07:15pm 19.3 19.0 17.3 88 1.2 SE 15 22 8 12 - - 0.6
28/07:00pm 19.0 17.9 17.3 90 1.0 SE 19 30 10 16 - - 0.6
28/06:52pm 19.0 17.0 17.3 90 1.0 SE 24 43 13 23 - - 0.6
28/06:30pm 19.5 17.5 17.5 88 1.2 SE 24 39 13 21 - - 0.4
28/06:16pm 19.6 17.3 17.7 89 1.2 SE 26 39 14 21 - - 0.4
28/06:11pm 19.5 16.8 17.6 89 1.2 SE 28 44 15 24 - - 0.4
28/06:00pm 19.4 17.6 17.9 91 0.9 SE 24 35 13 19 - - 0.4
28/05:51pm 19.7 17.3 17.3 86 1.5 ESE 26 35 14 19 - - 0.0
28/05:30pm 20.6 17.4 16.2 76 2.6 SE 28 43 15 23 - - 0.0
28/05:00pm 21.4 18.8 15.9 71 3.3 SE 24 33 13 18 - - 0.0
28/04:30pm 21.0 19.0 16.4 75 2.8 SE 22 41 12 22 - - 0.0
28/04:00pm 21.2 19.0 16.0 72 3.1 ESE 22 35 12 19 - - 0.0
28/03:30pm 20.8 16.9 15.6 72 3.1 SE 30 41 16 22 - - 0.0
28/03:06pm 21.9 18.4 15.5 67 3.8 SE 28 48 15 26 - - 0.0
28/03:00pm 22.0 18.5 15.4 66 3.9 SE 28 39 15 21 - - 0.0
28/02:30pm 21.9 17.4 15.0 65 4.1 SE 32 43 17 23 - - 0.0
28/02:00pm 22.1 18.1 14.0 60 4.7 SE 28 41 15 22 - - 0.0
28/01:30pm 22.2 18.6 14.1 60 4.7 SE 26 39 14 21 - - 0.0
28/01:00pm 22.0 18.0 14.1 61 4.6 SE 28 39 15 21 - - 0.0
28/12:30pm 21.8 18.6 14.2 62 4.4 SE 24 33 13 18 - - 0.0
28/12:00pm 21.3 17.7 15.2 68 3.6 SE 28 41 15 22 - - 0.0
28/11:34am 20.1 16.7 15.7 76 2.6 SE 28 43 15 23 - - 0.0
28/11:30am 20.0 17.1 16.0 78 2.4 SE 26 43 14 23 - - 0.0
28/11:12am 19.5 16.7 16.3 82 1.9 SE 26 43 14 23 - - 0.0
28/11:00am 19.7 18.2 16.7 83 1.8 SE 20 33 11 18 - - 0.0
28/10:49am 19.4 17.2 17.0 86 1.5 SE 24 39 13 21 - - 0.0
28/10:30am 19.5 18.3 17.5 88 1.2 SSE 20 33 11 18 - - 0.0
28/10:00am 20.0 18.5 16.8 82 1.9 ESE 20 32 11 17 - - 0.0
28/09:30am 20.7 17.7 15.9 74 2.9 SE 26 41 14 22 - - 0.0
28/09:00am 21.0 18.3 16.6 76 2.7 SE 26 41 14 22 - - 0.0
28/08:30am 20.9 18.7 16.9 78 2.4 SE 24 39 13 21 - - 0.0
28/08:00am 20.4 18.8 16.6 79 2.3 SE 20 32 11 17 - - 0.0
28/07:30am 20.1 18.2 16.7 81 2.1 SE 22 32 12 17 - - 0.0
28/07:00am 20.4 17.9 16.2 77 2.5 SE 24 35 13 19 - - 0.0
28/06:30am 20.6 19.0 16.4 77 2.5 SSE 20 33 11 18 - - 0.0
28/06:00am 20.5 19.0 16.7 79 2.3 SE 20 30 11 16 - - 0.0
28/05:30am 20.5 18.7 15.9 75 2.7 SE 20 32 11 17 - - 0.0
28/05:00am 20.5 19.3 16.1 76 2.6 SSE 17 28 9 15 - - 0.0
28/04:30am 20.4 18.8 16.0 76 2.6 SSE 19 30 10 16 - - 0.0
28/04:00am 20.6 19.1 16.4 77 2.5 SE 19 35 10 19 - - 0.0
28/03:30am 20.2 19.6 17.6 85 1.6 SE 17 32 9 17 - - 0.0
28/03:00am 19.9 19.5 18.0 89 1.2 SSE 17 24 9 13 - - 0.0
28/02:30am 19.5 19.4 18.7 95 0.5 SSE 17 28 9 15 - - 0.0
28/02:10am 19.3 18.7 18.5 95 0.5 SSE 19 30 10 16 - - 0.0
28/02:00am 19.5 19.4 18.7 95 0.5 SSE 17 32 9 17 - - 0.0
28/01:54am 19.4 19.6 18.6 95 0.5 SSE 15 26 8 14 - - 0.0
28/01:30am 19.5 18.8 18.3 93 0.7 SSE 19 28 10 15 - - 0.0
28/01:00am 19.7 18.7 17.5 87 1.3 SE 19 28 10 15 - - 0.0
28/12:30am 19.6 18.3 17.2 86 1.5 SE 20 32 11 17 - - 0.0
28/12:00am 19.4 17.7 17.2 87 1.3 SE 22 35 12 19 - - 0.0
 
Date/Time
EDT
Temp
°C
App
Temp
°C
Dew
Point
°C
Rel
Hum
%
Delta-T
°C
Wind Press
QNH
hPa
Press
MSL
hPa
Rain since
9am
mm
Dir  Spd
km/h
Gust
km/h
Spd
kts
Gust
kts
27/11:30pm 19.2 18.8 18.0 93 0.7 SSE 17 24 9 13 - - 0.0
27/11:00pm 19.4 19.1 19.1 98 0.2 SE 19 30 10 16 - - 0.0
27/10:30pm 19.1 19.2 18.4 96 0.4 SE 15 22 8 12 - - 0.0
27/10:00pm 19.1 18.6 18.6 97 0.3 SE 19 30 10 16 - - 0.0
27/09:40pm 19.1 18.7 18.8 98 0.2 SSE 19 32 10 17 - - 0.0
27/09:30pm 19.1 18.1 18.9 99 0.1 SE 22 35 12 19 - - 0.0
27/09:24pm 19.2 18.3 19.0 99 0.1 SE 22 32 12 17 - - 0.0
27/09:16pm 19.1 18.2 19.1 100 0.0 SE 22 30 12 16 - - 0.0
27/09:00pm 18.8 18.0 18.5 98 0.2 SE 20 33 11 18 - - 0.0
27/08:30pm 19.0 17.7 18.2 95 0.5 SE 22 37 12 20 - - 0.0
27/08:00pm 19.1 18.3 17.9 93 0.7 SE 19 28 10 15 - - 0.0
27/07:30pm 19.3 19.0 18.3 94 0.6 SSE 17 26 9 14 - - 0.0
27/07:15pm 19.4 19.4 18.1 92 0.8 S 15 22 8 12 - - 0.0
27/07:00pm 19.3 19.5 17.6 90 1.0 S 13 22 7 12 - - 0.0
27/06:30pm 19.5 19.4 17.8 90 1.0 S 15 26 8 14 - - 0.0
27/06:00pm 19.8 18.8 17.9 89 1.2 S 20 41 11 22 - - 0.0
27/05:30pm 20.3 19.2 17.3 83 1.8 S 19 32 10 17 - - 0.0
27/05:00pm 20.7 19.1 17.5 82 2.0 S 22 35 12 19 - - 0.0
27/04:30pm 20.9 19.2 17.3 80 2.2 S 22 37 12 20 - - 0.0
27/04:00pm 20.9 19.2 17.1 79 2.3 S 22 43 12 23 - - 0.0
27/03:30pm 21.0 18.9 17.2 79 2.3 SSE 24 37 13 20 - - 0.0
27/03:01pm 20.7 17.7 16.9 79 2.3 SSE 28 46 15 25 - - 0.0
27/03:00pm 20.7 17.4 16.9 79 2.3 SSE 30 46 16 25 - - 0.0
27/02:48pm 21.4 18.4 16.8 75 2.8 SSE 28 54 15 29 - - 0.0
27/02:30pm 21.8 19.3 17.0 74 2.9 SSE 26 48 14 26 - - 0.0
27/02:22pm 21.9 19.0 17.1 74 2.9 SSE 28 48 15 26 - - 0.0
27/02:00pm 22.6 20.4 16.9 70 3.5 SSE 24 44 13 24 - - 0.0
27/01:30pm 22.5 19.4 17.6 74 3.0 SSE 30 50 16 27 - - 0.0
27/01:02pm 22.6 19.8 17.3 72 3.3 SSE 28 52 15 28 - - 0.0
27/01:00pm 22.6 19.6 17.7 74 3.0 SSE 30 44 16 24 - - 0.0
27/12:30pm 22.5 19.7 17.4 73 3.1 S 28 48 15 26 - - 0.0
27/12:00pm 22.3 20.6 18.1 77 2.6 SSE 24 37 13 20 - - 0.0
27/11:38am 22.3 19.8 18.1 77 2.6 SSE 28 46 15 25 - - 0.0
27/11:30am 21.9 18.6 17.9 78 2.5 SSE 32 48 17 26 - - 0.0
27/11:28am 21.9 19.4 18.1 79 2.4 SSE 28 48 15 26 - - 0.0
27/11:00am 22.3 20.9 18.9 81 2.1 SSE 24 43 13 23 - - 0.0
27/10:45am 21.8 19.6 18.6 82 2.0 SSE 28 46 15 25 - - 0.0
27/10:30am 21.2 19.8 18.9 87 1.4 SSE 24 39 13 21 - - 0.0
27/10:00am 21.9 21.2 18.7 82 2.0 SSE 20 43 11 23 - - 0.0
27/09:30am 21.7 19.8 18.5 82 2.0 SSE 26 41 14 22 - - 0.0
27/09:25am 21.9 19.6 18.5 81 2.1 SSE 28 46 15 25 - - 0.0
27/09:00am 21.9 20.3 19.1 84 1.8 SSE 26 41 14 22 - - 0.0
27/08:36am 21.4 19.3 19.0 86 1.5 SSE 28 46 15 25 - - 0.0
27/08:30am 21.6 19.6 19.2 86 1.5 SSE 28 43 15 23 - - 0.0
27/08:00am 21.7 21.3 18.9 84 1.8 SSE 19 32 10 17 - - 0.0
27/07:30am 21.4 19.9 18.6 84 1.8 S 24 41 13 22 - - 0.0
27/07:00am 21.3 20.4 18.3 83 1.9 S 20 35 11 19 - - 0.0
27/06:30am 21.3 20.1 18.3 83 1.9 S 22 39 12 21 - - 0.0
27/06:00am 21.3 19.8 18.5 84 1.8 S 24 39 13 21 - - 0.0
27/05:30am 21.4 19.9 18.6 84 1.8 S 24 43 13 23 - - 0.0
27/05:00am 21.6 21.2 18.8 84 1.8 S 19 28 10 15 - - 0.0
27/04:30am 21.9 21.1 19.3 85 1.7 S 22 37 12 20 - - 0.0
27/04:00am 22.7 22.6 20.0 85 1.7 S 20 37 11 20 - - 0.0
27/03:30am 23.4 23.7 20.7 85 1.8 S 20 32 11 17 - - 0.0
27/03:00am 24.2 25.6 21.1 83 2.0 S 15 22 8 12 - - 0.0
27/02:30am 24.2 25.8 21.5 85 1.8 S 15 26 8 14 - - 0.0
27/02:00am 24.2 25.1 21.5 85 1.8 SSE 19 32 10 17 - - 0.0
27/01:30am 24.1 25.3 21.4 85 1.8 SSE 17 24 9 13 - - 0.0
27/01:00am 24.0 23.9 20.7 82 2.2 SE 22 35 12 19 - - 0.0
27/12:30am 23.9 24.2 20.8 83 2.0 SE 20 33 11 18 - - 0.0
27/12:00am 23.7 23.1 20.6 83 2.0 SE 24 35 13 19 - - 0.0
 
Date/Time
EDT
Temp
°C
App
Temp
°C
Dew
Point
°C
Rel
Hum
%
Delta-T
°C
Wind Press
QNH
hPa
Press
MSL
hPa
Rain since
9am
mm
Dir  Spd
km/h
Gust
km/h
Spd
kts
Gust
kts
26/11:41pm 24.1 22.6 20.2 79 2.5 SE 28 50 15 27 - - 0.0
26/11:30pm 24.3 23.1 20.0 77 2.8 SE 26 43 14 23 - - 0.0
26/11:00pm 24.7 24.0 19.5 73 3.3 SSE 22 33 12 18 - - 0.0
26/10:36pm 25.2 23.2 19.1 69 3.9 SSE 28 46 15 25 - - 0.0
26/10:30pm 25.4 23.8 19.1 68 4.0 SSE 26 48 14 26 - - 0.0
26/10:00pm 26.7 25.7 18.0 59 5.5 SSE 20 37 11 20 - - 0.0
26/09:30pm 29.2 29.0 17.7 50 7.3 SSW 15 28 8 15 - - 0.0
26/09:00pm 30.8 31.6 16.4 42 9.0 WSW 7 11 4 6 - - 0.0
26/08:30pm 30.7 31.0 15.9 40 9.2 WNW 9 15 5 8 - - 0.0
26/08:00pm 30.7 29.8 15.9 40 9.2 NNE 15 22 8 12 - - 0.0
26/07:30pm 30.9 29.2 15.7 39 9.4 NE 19 28 10 15 - - 0.0
26/07:00pm 31.0 29.5 16.2 41 9.2 NE 19 28 10 15 - - 0.0
26/06:30pm 31.0 29.1 15.8 40 9.4 NE 20 32 11 17 - - 0.0
26/06:00pm 31.3 30.0 15.7 39 9.7 NE 17 28 9 15 - - 0.0
26/05:30pm 32.3 30.2 15.3 35 10.5 NE 20 33 11 18 - - 0.0
26/05:00pm 33.2 30.3 15.2 33 11.2 ENE 24 37 13 20 - - 0.0
26/04:30pm 33.5 30.8 15.5 34 11.2 ENE 24 35 13 19 - - 0.0
26/04:00pm 34.5 32.3 14.9 31 12.2 NE 20 30 11 16 - - 0.0
26/03:30pm 35.9 34.5 13.4 26 13.7 ENE 13 26 7 14 - - 0.0
26/03:00pm 38.2 34.9 9.7 18 16.6 NNW 17 32 9 17 - - 0.0
26/02:30pm 38.5 34.8 10.0 18 16.7 NNW 20 30 11 16 - - 0.0
26/02:00pm 38.2 35.4 11.3 20 16.1 NNW 17 30 9 16 - - 0.0
26/01:30pm 37.7 35.2 10.9 20 15.9 NW 15 24 8 13 - - 0.0
26/01:00pm 37.7 35.4 13.0 23 15.1 NW 17 30 9 16 - - 0.0
26/12:30pm 36.6 33.4 11.4 22 15.0 NNW 19 28 10 15 - - 0.0
26/12:00pm 36.3 33.5 12.5 24 14.4 NW 19 28 10 15 - - 0.0
26/11:30am 35.7 32.9 12.6 25 13.9 NW 19 28 10 15 - - 0.0
26/11:00am 35.1 32.5 13.3 27 13.2 NW 19 30 10 16 - - 0.0
26/10:30am 34.2 32.1 14.7 31 12.1 NW 19 26 10 14 - - 0.0
26/10:00am 33.0 31.3 13.6 31 11.7 NW 15 26 8 14 - - 0.0
26/09:30am 30.8 29.8 15.6 39 9.4 NNW 15 28 8 15 - - 0.0
26/09:00am 28.7 30.5 18.8 55 6.4 NW 7 11 4 6 - - 0.0
26/08:30am 26.1 28.3 19.5 67 4.3 NW 7 11 4 6 - - 0.0
26/08:00am 24.4 26.9 19.9 76 2.9 WNW 6 11 3 6 - - 0.0
26/07:30am 22.9 26.4 20.4 86 1.6 N 2 7 1 4 - - 0.0
26/07:00am 21.3 25.4 20.8 97 0.3 CALM 0 0 0 0 - - 0.0
26/06:47am 20.5 24.0 19.5 94 0.6 CALM 0 0 0 0 - - 0.0
26/06:36am 20.6 24.1 19.6 94 0.6 CALM 0 4 0 2 - - 0.0
26/06:30am 20.1 23.3 18.8 92 0.8 CALM 0 4 0 2 - - 0.0
26/06:00am 20.8 24.3 19.5 92 0.8 CALM 0 0 0 0 - - 0.0
26/05:30am 20.6 23.7 18.7 89 1.2 CALM 0 0 0 0 - - 0.0
26/05:00am 21.1 24.4 19.2 89 1.2 CALM 0 0 0 0 - - 0.0
26/04:30am 21.5 24.8 19.1 86 1.5 CALM 0 0 0 0 - - 0.0
26/04:00am 22.2 24.6 19.6 85 1.7 N 6 9 3 5 - - 0.0
26/03:30am 22.4 24.7 19.9 86 1.6 N 7 11 4 6 - - 0.0
26/03:00am 22.1 24.9 19.6 86 1.6 N 4 7 2 4 - - 0.0
26/02:30am 22.5 25.0 20.2 87 1.5 N 7 9 4 5 - - 0.0

Other formats

Comma delimited format used in spreadsheet applications
http://www.bom.gov.au/fwo/IDN60801/IDN60801.94766.axf

JavaScript Object Notation format (JSON) in row-major order
http://www.bom.gov.au/fwo/IDN60801/IDN60801.94766.json

Data quality

Most of these data are generated automatically and are frequently updated. Quality checks on data are not normally performed. It is possible for incorrect values to appear. Refer to information at About Latest Weather Observations and please check the disclaimer before using these data.